PWSweather.com
Personal Weather Stations
Station Observations
GRD01
Warsaw, LesznoPL 05-084

WarsawLesznoPL 05-084

Lat: 52.257404, Lon: 20.564847

Elevation: 298

Station Type: WH3080

http://pogoda.kampinos.waw.pl

High Low Average
Temperature 67.5°F19.7°C 45.5°F7.5°C 56.2°F13.4°C
Dew Point 47.7°F8.7°C 37.3°F2.9°C 41.8°F5.4°C
Winds 13.6 mph 21.9 kmh Calm Calm 5.0 mph SW8.0 kmh SW
Wind Gusts 21.3 mph34.3 kmh -- 9.0 mph14.5 kmh
Humidity 77% 37% 60%
Pressure 29.37 in994.6 mb 29.16 in987.5 mb -
Precipitation 0.00 in0.0 mm - -
Hour Temp Dew Point Humidity Winds Wind Gusts Pressure Precip Precip Rate Daily Precip Total
12:00 AM 48.9°F9.4°C 40.6°F4.8°C 73% 0.7 mph S1.1 kmh S 3.1 mph5.0 kmh 29.19 in988.5 mb 0.00 in0.0 mm 0.00 in0.0 mm 0.00 in0.0 mm
12:15 AM 48.6°F9.2°C 40.3°F4.6°C 73% 1.6 mph S2.6 kmh S 2.2 mph3.5 kmh 29.20 in988.8 mb 0.00 in0.0 mm 0.00 in0.0 mm 0.00 in0.0 mm
12:30 AM 48.2°F9.0°C 40.3°F4.6°C 74% Calm Calm 2.2 mph3.5 kmh 29.20 in988.8 mb 0.00 in0.0 mm 0.00 in0.0 mm 0.00 in0.0 mm
12:45 AM 47.8°F8.8°C 40.0°F4.4°C 74% 0.7 mph SE1.1 kmh SE 2.2 mph3.5 kmh 29.19 in988.5 mb 0.00 in0.0 mm 0.00 in0.0 mm 0.00 in0.0 mm
01:00 AM 47.5°F8.6°C 39.9°F4.4°C 75% 1.6 mph SSE2.6 kmh SSE 3.8 mph6.1 kmh 29.19 in988.5 mb 0.00 in0.0 mm 0.00 in0.0 mm 0.00 in0.0 mm
01:15 AM 47.3°F8.5°C 39.8°F4.3°C 75% 1.6 mph SE2.6 kmh SE 3.1 mph5.0 kmh 29.19 in988.5 mb 0.00 in0.0 mm 0.00 in0.0 mm 0.00 in0.0 mm
01:30 AM 47.3°F8.5°C 40.1°F4.5°C 76% 2.2 mph SE3.5 kmh SE 3.1 mph5.0 kmh 29.18 in988.1 mb 0.00 in0.0 mm 0.00 in0.0 mm 0.00 in0.0 mm
01:45 AM 46.9°F8.3°C 39.8°F4.3°C 76% 2.2 mph SE3.5 kmh SE 3.1 mph5.0 kmh 29.17 in987.8 mb 0.00 in0.0 mm 0.00 in0.0 mm 0.00 in0.0 mm
02:00 AM 47.1°F8.4°C 39.9°F4.4°C 76% 2.2 mph SE3.5 kmh SE 3.8 mph6.1 kmh 29.18 in988.1 mb 0.00 in0.0 mm 0.00 in0.0 mm 0.00 in0.0 mm
02:15 AM 46.9°F8.3°C 39.8°F4.3°C 76% 3.1 mph ESE5.0 kmh ESE 4.5 mph7.2 kmh 29.18 in988.1 mb 0.00 in0.0 mm 0.00 in0.0 mm 0.00 in0.0 mm
02:30 AM 46.8°F8.2°C 39.6°F4.2°C 76% 1.6 mph SE2.6 kmh SE 3.1 mph5.0 kmh 29.17 in987.8 mb 0.00 in0.0 mm 0.00 in0.0 mm 0.00 in0.0 mm
02:45 AM 46.6°F8.1°C 39.4°F4.1°C 76% 1.6 mph S2.6 kmh S 3.1 mph5.0 kmh 29.16 in987.5 mb 0.00 in0.0 mm 0.00 in0.0 mm 0.00 in0.0 mm
03:00 AM 46.0°F7.8°C 38.9°F3.8°C 76% 1.6 mph SSE2.6 kmh SSE 3.8 mph6.1 kmh 29.17 in987.8 mb 0.00 in0.0 mm 0.00 in0.0 mm 0.00 in0.0 mm
03:15 AM 45.7°F7.6°C 38.5°F3.6°C 76% 2.2 mph SSE3.5 kmh SSE 3.8 mph6.1 kmh 29.17 in987.8 mb 0.00 in0.0 mm 0.00 in0.0 mm 0.00 in0.0 mm
03:30 AM 45.9°F7.7°C 39.1°F3.9°C 77% 3.1 mph S5.0 kmh S 4.5 mph7.2 kmh 29.17 in987.8 mb 0.00 in0.0 mm 0.00 in0.0 mm 0.00 in0.0 mm
03:45 AM 47.1°F8.4°C 39.9°F4.4°C 76% 3.1 mph S5.0 kmh S 5.4 mph8.7 kmh 29.17 in987.8 mb 0.00 in0.0 mm 0.00 in0.0 mm 0.00 in0.0 mm
04:00 AM 47.1°F8.4°C 39.3°F4.1°C 74% 1.6 mph SSW2.6 kmh SSW 4.5 mph7.2 kmh 29.18 in988.1 mb 0.00 in0.0 mm 0.00 in0.0 mm 0.00 in0.0 mm
04:15 AM 46.8°F8.2°C 38.9°F3.8°C 74% 3.1 mph S5.0 kmh S 5.4 mph8.7 kmh 29.17 in987.8 mb 0.00 in0.0 mm 0.00 in0.0 mm 0.00 in0.0 mm
04:30 AM 46.9°F8.3°C 38.7°F3.7°C 73% 1.6 mph S2.6 kmh S 3.1 mph5.0 kmh 29.17 in987.8 mb 0.00 in0.0 mm 0.00 in0.0 mm 0.00 in0.0 mm
04:45 AM 46.9°F8.3°C 38.7°F3.7°C 73% 0.7 mph SSE1.1 kmh SSE 3.8 mph6.1 kmh 29.16 in987.5 mb 0.00 in0.0 mm 0.00 in0.0 mm 0.00 in0.0 mm
05:00 AM 46.2°F7.9°C 37.7°F3.2°C 72% 1.6 mph SSE2.6 kmh SSE 3.8 mph6.1 kmh 29.16 in987.5 mb 0.00 in0.0 mm 0.00 in0.0 mm 0.00 in0.0 mm
05:15 AM 45.5°F7.5°C 37.3°F2.9°C 73% 3.1 mph S5.0 kmh S 4.5 mph7.2 kmh 29.17 in987.8 mb 0.00 in0.0 mm 0.00 in0.0 mm 0.00 in0.0 mm
05:30 AM 46.2°F7.9°C 38.4°F3.6°C 74% 2.2 mph S3.5 kmh S 4.5 mph7.2 kmh 29.17 in987.8 mb 0.00 in0.0 mm 0.00 in0.0 mm 0.00 in0.0 mm
05:45 AM 46.9°F8.3°C 39.1°F3.9°C 74% 1.6 mph WSW2.6 kmh WSW 5.4 mph8.7 kmh 29.19 in988.5 mb 0.00 in0.0 mm 0.00 in0.0 mm 0.00 in0.0 mm
06:00 AM 47.5°F8.6°C 39.3°F4.1°C 73% 3.8 mph N6.1 kmh N 8.3 mph13.4 kmh 29.19 in988.5 mb 0.00 in0.0 mm 0.00 in0.0 mm 0.00 in0.0 mm
06:15 AM 47.8°F8.8°C 39.6°F4.2°C 73% 2.2 mph ENE3.5 kmh ENE 8.3 mph13.4 kmh 29.19 in988.5 mb 0.00 in0.0 mm 0.00 in0.0 mm 0.00 in0.0 mm
06:30 AM 47.7°F8.7°C 39.4°F4.1°C 73% 1.6 mph SSE2.6 kmh SSE 3.1 mph5.0 kmh 29.19 in988.5 mb 0.00 in0.0 mm 0.00 in0.0 mm 0.00 in0.0 mm
06:45 AM 48.4°F9.1°C 40.5°F4.7°C 74% 3.1 mph SW5.0 kmh SW 6.0 mph9.7 kmh 29.19 in988.5 mb 0.00 in0.0 mm 0.00 in0.0 mm 0.00 in0.0 mm
07:00 AM 49.5°F9.7°C 41.2°F5.1°C 73% 5.4 mph SW8.7 kmh SW 9.8 mph15.8 kmh 29.20 in988.8 mb 0.00 in0.0 mm 0.00 in0.0 mm 0.00 in0.0 mm
07:15 AM 50.2°F10.1°C 41.9°F5.5°C 73% 6.0 mph SW9.7 kmh SW 9.2 mph14.8 kmh 29.20 in988.8 mb 0.00 in0.0 mm 0.00 in0.0 mm 0.00 in0.0 mm
07:30 AM 50.5°F10.3°C 41.8°F5.4°C 72% 6.9 mph SW11.1 kmh SW 9.2 mph14.8 kmh 29.20 in988.8 mb 0.00 in0.0 mm 0.00 in0.0 mm 0.00 in0.0 mm
07:45 AM 51.1°F10.6°C 42.4°F5.8°C 72% 4.5 mph NW7.2 kmh NW 9.8 mph15.8 kmh 29.20 in988.8 mb 0.00 in0.0 mm 0.00 in0.0 mm 0.00 in0.0 mm
08:00 AM 51.8°F11.0°C 43.1°F6.2°C 72% 6.0 mph SSW9.7 kmh SSW 12.1 mph19.5 kmh 29.21 in989.2 mb 0.00 in0.0 mm 0.00 in0.0 mm 0.00 in0.0 mm
08:15 AM 52.5°F11.4°C 43.8°F6.6°C 72% 7.6 mph S12.2 kmh S 12.1 mph19.5 kmh 29.20 in988.8 mb 0.00 in0.0 mm 0.00 in0.0 mm 0.00 in0.0 mm
08:30 AM 54.0°F12.2°C 44.8°F7.1°C 71% 8.3 mph WSW13.4 kmh WSW 12.1 mph19.5 kmh 29.21 in989.2 mb 0.00 in0.0 mm 0.00 in0.0 mm 0.00 in0.0 mm
08:45 AM 55.8°F13.2°C 44.6°F7.0°C 66% 3.8 mph S6.1 kmh S 13.6 mph21.9 kmh 29.22 in989.5 mb 0.00 in0.0 mm 0.00 in0.0 mm 0.00 in0.0 mm
09:00 AM 56.8°F13.8°C 45.2°F7.3°C 65% 6.0 mph SSW9.7 kmh SSW 10.7 mph17.2 kmh 29.22 in989.5 mb 0.00 in0.0 mm 0.00 in0.0 mm 0.00 in0.0 mm
09:15 AM 57.7°F14.3°C 45.6°F7.6°C 64% 5.4 mph WSW8.7 kmh WSW 11.4 mph18.3 kmh 29.23 in989.8 mb 0.00 in0.0 mm 0.00 in0.0 mm 0.00 in0.0 mm
09:30 AM 59.4°F15.2°C 46.8°F8.2°C 63% 10.7 mph WSW17.2 kmh WSW 17.4 mph28.0 kmh 29.23 in989.8 mb 0.00 in0.0 mm 0.00 in0.0 mm 0.00 in0.0 mm
09:45 AM 61.0°F16.1°C 47.4°F8.6°C 61% 9.8 mph W15.8 kmh W 16.8 mph27.0 kmh 29.23 in989.8 mb 0.00 in0.0 mm 0.00 in0.0 mm 0.00 in0.0 mm
10:00 AM 62.2°F16.8°C 47.7°F8.7°C 59% 11.4 mph WSW18.3 kmh WSW 15.9 mph25.6 kmh 29.24 in990.2 mb 0.00 in0.0 mm 0.00 in0.0 mm 0.00 in0.0 mm
10:15 AM 62.6°F17.0°C 46.7°F8.2°C 56% 9.2 mph WSW14.8 kmh WSW 15.2 mph24.5 kmh 29.24 in990.2 mb 0.00 in0.0 mm 0.00 in0.0 mm 0.00 in0.0 mm
10:30 AM 63.5°F17.5°C 45.6°F7.6°C 52% 4.5 mph WSW7.2 kmh WSW 13.6 mph21.9 kmh 29.24 in990.2 mb 0.00 in0.0 mm 0.00 in0.0 mm 0.00 in0.0 mm
10:45 AM 64.2°F17.9°C 45.7°F7.6°C 51% 7.6 mph SW12.2 kmh SW 13.6 mph21.9 kmh 29.24 in990.2 mb 0.00 in0.0 mm 0.00 in0.0 mm 0.00 in0.0 mm
11:00 AM 64.8°F18.2°C 45.7°F7.6°C 50% 6.0 mph WNW9.7 kmh WNW 13.0 mph20.9 kmh 29.23 in989.8 mb 0.00 in0.0 mm 0.00 in0.0 mm 0.00 in0.0 mm
11:15 AM 65.3°F18.5°C 46.7°F8.2°C 51% 8.3 mph SW13.4 kmh SW 17.4 mph28.0 kmh 29.24 in990.2 mb 0.00 in0.0 mm 0.00 in0.0 mm 0.00 in0.0 mm
11:30 AM 65.7°F18.7°C 46.5°F8.1°C 50% 7.6 mph SW12.2 kmh SW 16.8 mph27.0 kmh 29.24 in990.2 mb 0.00 in0.0 mm 0.00 in0.0 mm 0.00 in0.0 mm
11:45 AM 66.4°F19.1°C 47.2°F8.4°C 50% 4.5 mph SW7.2 kmh SW 13.0 mph20.9 kmh 29.24 in990.2 mb 0.00 in0.0 mm 0.00 in0.0 mm 0.00 in0.0 mm
12:00 PM 66.6°F19.2°C 45.7°F7.6°C 47% 7.6 mph SW12.2 kmh SW 18.3 mph29.5 kmh 29.24 in990.2 mb 0.00 in0.0 mm 0.00 in0.0 mm 0.00 in0.0 mm
12:15 PM 67.1°F19.5°C 43.8°F6.6°C 43% 11.4 mph S18.3 kmh S 19.0 mph30.6 kmh 29.24 in990.2 mb 0.00 in0.0 mm 0.00 in0.0 mm 0.00 in0.0 mm
12:30 PM 66.9°F19.4°C 42.4°F5.8°C 41% 9.2 mph WSW14.8 kmh WSW 16.8 mph27.0 kmh 29.24 in990.2 mb 0.00 in0.0 mm 0.00 in0.0 mm 0.00 in0.0 mm
12:45 PM 67.1°F19.5°C 42.6°F5.9°C 41% 10.7 mph E17.2 kmh E 18.3 mph29.5 kmh 29.24 in990.2 mb 0.00 in0.0 mm 0.00 in0.0 mm 0.00 in0.0 mm
01:00 PM 67.1°F19.5°C 42.0°F5.6°C 40% 9.8 mph SW15.8 kmh SW 17.4 mph28.0 kmh 29.25 in990.5 mb 0.00 in0.0 mm 0.00 in0.0 mm 0.00 in0.0 mm
01:15 PM 67.3°F19.6°C 40.1°F4.5°C 37% 10.7 mph SW17.2 kmh SW 18.3 mph29.5 kmh 29.24 in990.2 mb 0.00 in0.0 mm 0.00 in0.0 mm 0.00 in0.0 mm
01:30 PM 66.9°F19.4°C 41.1°F5.1°C 39% 9.8 mph SW15.8 kmh SW 15.9 mph25.6 kmh 29.24 in990.2 mb 0.00 in0.0 mm 0.00 in0.0 mm 0.00 in0.0 mm
01:45 PM 66.7°F19.3°C 41.0°F5.0°C 39% 12.1 mph W19.5 kmh W 21.3 mph34.3 kmh 29.24 in990.2 mb 0.00 in0.0 mm 0.00 in0.0 mm 0.00 in0.0 mm
02:00 PM 66.9°F19.4°C 41.8°F5.4°C 40% 9.8 mph WSW15.8 kmh WSW 17.4 mph28.0 kmh 29.24 in990.2 mb 0.00 in0.0 mm 0.00 in0.0 mm 0.00 in0.0 mm
02:15 PM 67.3°F19.6°C 42.1°F5.6°C 40% 7.6 mph SW12.2 kmh SW 14.5 mph23.3 kmh 29.25 in990.5 mb 0.00 in0.0 mm 0.00 in0.0 mm 0.00 in0.0 mm
02:30 PM 66.9°F19.4°C 41.8°F5.4°C 40% 9.8 mph WNW15.8 kmh WNW 18.3 mph29.5 kmh 29.25 in990.5 mb 0.00 in0.0 mm 0.00 in0.0 mm 0.00 in0.0 mm
02:45 PM 67.1°F19.5°C 42.0°F5.6°C 40% 6.0 mph SSW9.7 kmh SSW 17.4 mph28.0 kmh 29.26 in990.9 mb 0.00 in0.0 mm 0.00 in0.0 mm 0.00 in0.0 mm
03:00 PM 67.5°F19.7°C 42.9°F6.1°C 41% 10.7 mph WSW17.2 kmh WSW 13.6 mph21.9 kmh 29.26 in990.9 mb 0.00 in0.0 mm 0.00 in0.0 mm 0.00 in0.0 mm
03:15 PM 66.9°F19.4°C 42.4°F5.8°C 41% 8.3 mph SW13.4 kmh SW 13.6 mph21.9 kmh 29.25 in990.5 mb 0.00 in0.0 mm 0.00 in0.0 mm 0.00 in0.0 mm
03:30 PM 66.6°F19.2°C 42.1°F5.6°C 41% 6.0 mph W9.7 kmh W 15.9 mph25.6 kmh 29.26 in990.9 mb 0.00 in0.0 mm 0.00 in0.0 mm 0.00 in0.0 mm
03:45 PM 66.0°F18.9°C 42.3°F5.7°C 42% 6.0 mph W9.7 kmh W 10.7 mph17.2 kmh 29.26 in990.9 mb 0.00 in0.0 mm 0.00 in0.0 mm 0.00 in0.0 mm
04:00 PM 65.5°F18.6°C 41.8°F5.4°C 42% 3.1 mph NW5.0 kmh NW 7.6 mph12.2 kmh 29.26 in990.9 mb 0.00 in0.0 mm 0.00 in0.0 mm 0.00 in0.0 mm
04:15 PM 65.3°F18.5°C 41.6°F5.3°C 42% 8.3 mph W13.4 kmh W 12.1 mph19.5 kmh 29.26 in990.9 mb 0.00 in0.0 mm 0.00 in0.0 mm 0.00 in0.0 mm
04:30 PM 65.5°F18.6°C 41.8°F5.4°C 42% 10.7 mph W17.2 kmh W 13.0 mph20.9 kmh 29.26 in990.9 mb 0.00 in0.0 mm 0.00 in0.0 mm 0.00 in0.0 mm
04:45 PM 65.1°F18.4°C 41.4°F5.2°C 42% 9.2 mph NW14.8 kmh NW 12.1 mph19.5 kmh 29.26 in990.9 mb 0.00 in0.0 mm 0.00 in0.0 mm 0.00 in0.0 mm
05:00 PM 65.1°F18.4°C 41.4°F5.2°C 42% 12.1 mph W19.5 kmh W 15.2 mph24.5 kmh 29.27 in991.2 mb 0.00 in0.0 mm 0.00 in0.0 mm 0.00 in0.0 mm
05:15 PM 64.2°F17.9°C 40.6°F4.8°C 42% 8.3 mph WSW13.4 kmh WSW 12.1 mph19.5 kmh 29.27 in991.2 mb 0.00 in0.0 mm 0.00 in0.0 mm 0.00 in0.0 mm
05:30 PM 63.3°F17.4°C 42.2°F5.7°C 46% 4.5 mph WSW7.2 kmh WSW 9.2 mph14.8 kmh 29.27 in991.2 mb 0.00 in0.0 mm 0.00 in0.0 mm 0.00 in0.0 mm
05:45 PM 62.6°F17.0°C 42.1°F5.6°C 47% 3.1 mph WNW5.0 kmh WNW 6.9 mph11.1 kmh 29.28 in991.5 mb 0.00 in0.0 mm 0.00 in0.0 mm 0.00 in0.0 mm
06:00 PM 62.2°F16.8°C 42.3°F5.7°C 48% 2.2 mph WNW3.5 kmh WNW 6.0 mph9.7 kmh 29.28 in991.5 mb 0.00 in0.0 mm 0.00 in0.0 mm 0.00 in0.0 mm
06:15 PM 61.7°F16.5°C 42.3°F5.7°C 49% 3.1 mph W5.0 kmh W 4.5 mph7.2 kmh 29.27 in991.2 mb 0.00 in0.0 mm 0.00 in0.0 mm 0.00 in0.0 mm
06:30 PM 61.2°F16.2°C 41.8°F5.4°C 49% 3.1 mph NW5.0 kmh NW 4.5 mph7.2 kmh 29.28 in991.5 mb 0.00 in0.0 mm 0.00 in0.0 mm 0.00 in0.0 mm
06:45 PM 60.4°F15.8°C 41.7°F5.4°C 50% 1.6 mph W2.6 kmh W 3.8 mph6.1 kmh 29.29 in991.9 mb 0.00 in0.0 mm 0.00 in0.0 mm 0.00 in0.0 mm
07:00 PM 59.7°F15.4°C 41.6°F5.3°C 51% 1.6 mph WSW2.6 kmh WSW 3.1 mph5.0 kmh 29.30 in992.2 mb 0.00 in0.0 mm 0.00 in0.0 mm 0.00 in0.0 mm
07:15 PM 58.8°F14.9°C 41.2°F5.1°C 52% Calm Calm 2.2 mph3.5 kmh 29.30 in992.2 mb 0.00 in0.0 mm 0.00 in0.0 mm 0.00 in0.0 mm
07:30 PM 57.7°F14.3°C 41.7°F5.4°C 55% Calm Calm 1.6 mph2.6 kmh 29.31 in992.6 mb 0.00 in0.0 mm 0.00 in0.0 mm 0.00 in0.0 mm
07:45 PM 57.0°F13.9°C 41.9°F5.5°C 57% Calm Calm 1.6 mph2.6 kmh 29.31 in992.6 mb 0.00 in0.0 mm 0.00 in0.0 mm 0.00 in0.0 mm
08:00 PM 56.5°F13.6°C 42.3°F5.7°C 59% 0.7 mph S1.1 kmh S 1.6 mph2.6 kmh 29.31 in992.6 mb 0.00 in0.0 mm 0.00 in0.0 mm 0.00 in0.0 mm
08:15 PM 55.9°F13.3°C 42.2°F5.7°C 60% Calm Calm 0.7 mph1.1 kmh 29.31 in992.6 mb 0.00 in0.0 mm 0.00 in0.0 mm 0.00 in0.0 mm
08:30 PM 55.2°F12.9°C 41.6°F5.3°C 60% Calm Calm 0.7 mph1.1 kmh 29.32 in992.9 mb 0.00 in0.0 mm 0.00 in0.0 mm 0.00 in0.0 mm
08:45 PM 54.1°F12.3°C 42.2°F5.7°C 64% Calm Calm 2.2 mph3.5 kmh 29.32 in992.9 mb 0.00 in0.0 mm 0.00 in0.0 mm 0.00 in0.0 mm
09:00 PM 53.4°F11.9°C 41.9°F5.5°C 65% 0.7 mph SSE1.1 kmh SSE 2.2 mph3.5 kmh 29.32 in992.9 mb 0.00 in0.0 mm 0.00 in0.0 mm 0.00 in0.0 mm
09:15 PM 52.7°F11.5°C 42.8°F6.0°C 69% Calm Calm 2.2 mph3.5 kmh 29.32 in992.9 mb 0.00 in0.0 mm 0.00 in0.0 mm 0.00 in0.0 mm
09:30 PM 52.5°F11.4°C 43.0°F6.1°C 70% Calm Calm 1.6 mph2.6 kmh 29.33 in993.2 mb 0.00 in0.0 mm 0.00 in0.0 mm 0.00 in0.0 mm
09:45 PM 51.8°F11.0°C 42.3°F5.7°C 70% 0.7 mph S1.1 kmh S 2.2 mph3.5 kmh 29.33 in993.2 mb 0.00 in0.0 mm 0.00 in0.0 mm 0.00 in0.0 mm
10:00 PM 51.3°F10.7°C 41.8°F5.4°C 70% Calm Calm -- 29.33 in993.2 mb 0.00 in0.0 mm 0.00 in0.0 mm 0.00 in0.0 mm
10:15 PM 50.5°F10.3°C 41.1°F5.1°C 70% 1.6 mph W2.6 kmh W 2.2 mph3.5 kmh 29.34 in993.6 mb 0.00 in0.0 mm 0.00 in0.0 mm 0.00 in0.0 mm
10:30 PM 50.0°F10.0°C 40.6°F4.8°C 70% Calm Calm 3.1 mph5.0 kmh 29.34 in993.6 mb 0.00 in0.0 mm 0.00 in0.0 mm 0.00 in0.0 mm
10:45 PM 49.8°F9.9°C 40.8°F4.9°C 71% 1.6 mph W2.6 kmh W 3.1 mph5.0 kmh 29.34 in993.6 mb 0.00 in0.0 mm 0.00 in0.0 mm 0.00 in0.0 mm
11:00 PM 49.8°F9.9°C 40.8°F4.9°C 71% 13.6 mph WSW21.9 kmh WSW 18.3 mph29.5 kmh 29.36 in994.2 mb 0.00 in0.0 mm 0.00 in0.0 mm 0.00 in0.0 mm
11:15 PM 52.5°F11.4°C 43.0°F6.1°C 70% 8.3 mph WNW13.4 kmh WNW 13.6 mph21.9 kmh 29.36 in994.2 mb 0.00 in0.0 mm 0.00 in0.0 mm 0.00 in0.0 mm
11:30 PM 53.6°F12.0°C 42.5°F5.8°C 66% 5.4 mph NNW8.7 kmh NNW 9.2 mph14.8 kmh 29.37 in994.6 mb 0.00 in0.0 mm 0.00 in0.0 mm 0.00 in0.0 mm
11:45 PM 53.8°F12.1°C 41.9°F5.5°C 64% 3.8 mph W6.1 kmh W 6.9 mph11.1 kmh 29.37 in994.6 mb 0.00 in0.0 mm 0.00 in0.0 mm 0.00 in0.0 mm